createdAt,value
2022-08-01T00:02:50.374Z,17.18
2022-08-01T00:06:14.301Z,17.16
2022-08-01T00:09:38.238Z,17.54
2022-08-01T00:13:02.331Z,17.88
2022-08-01T00:16:26.320Z,17.98
2022-08-01T00:19:50.344Z,18.49
2022-08-01T00:23:14.287Z,18.07
2022-08-01T00:26:39.289Z,17.92
2022-08-01T00:30:13.354Z,18.68
2022-08-01T00:33:39.331Z,17.69
2022-08-01T00:37:04.246Z,18.13
2022-08-01T00:40:29.355Z,18.12
2022-08-01T00:43:53.295Z,18.00
2022-08-01T00:47:18.390Z,18.31
2022-08-01T00:50:42.289Z,18.56
2022-08-01T00:54:07.298Z,18.22
2022-08-01T00:58:02.783Z,18.02
2022-08-01T01:01:16.330Z,18.62
2022-08-01T01:04:40.340Z,18.61
2022-08-01T01:08:15.332Z,17.26
2022-08-01T01:11:48.285Z,17.42
2022-08-01T01:15:27.335Z,17.15
2022-08-01T01:19:08.279Z,17.18
2022-08-01T01:22:40.337Z,18.41
2022-08-01T01:26:36.322Z,17.76
2022-08-01T01:30:08.367Z,18.31
2022-08-01T01:33:34.277Z,17.93
2022-08-01T01:37:00.378Z,18.73
2022-08-01T01:40:25.308Z,18.16
2022-08-01T01:43:52.371Z,16.25
2022-08-01T01:47:17.325Z,15.73
2022-08-01T01:50:41.286Z,17.11
2022-08-01T01:54:05.318Z,17.63
2022-08-01T01:57:29.344Z,17.76
2022-08-01T02:00:47.361Z,17.77
2022-08-01T02:04:13.340Z,17.65
2022-08-01T02:07:41.309Z,17.53
2022-08-01T02:11:27.386Z,17.88
2022-08-01T02:14:51.332Z,18.04
2022-08-01T02:18:17.388Z,17.76
2022-08-01T02:21:56.313Z,17.31
2022-08-01T02:25:27.346Z,16.68
2022-08-01T02:28:57.368Z,15.83
2022-08-01T02:32:21.374Z,16.16
2022-08-01T02:36:31.146Z,16.90
2022-08-01T02:39:34.308Z,16.06
2022-08-01T02:43:05.394Z,16.47
2022-08-01T02:46:34.343Z,16.56
2022-08-01T02:50:03.359Z,15.82
2022-08-01T02:53:41.639Z,15.97
2022-08-01T02:57:14.066Z,16.50
2022-08-01T03:00:38.301Z,15.73
2022-08-01T03:04:02.342Z,15.29
2022-08-01T03:07:34.244Z,15.07
2022-08-01T03:11:01.394Z,14.84
2022-08-01T03:14:27.371Z,14.74
2022-08-01T03:17:51.397Z,14.46
2022-08-01T03:21:09.984Z,15.02
2022-08-01T03:24:28.395Z,15.43
2022-08-01T03:27:53.381Z,15.89
2022-08-01T03:31:17.400Z,15.93
2022-08-01T03:34:41.354Z,15.80
2022-08-01T03:38:16.388Z,16.10
2022-08-01T03:41:42.362Z,15.96
2022-08-01T03:45:18.354Z,16.04
2022-08-01T03:48:45.505Z,16.03
2022-08-01T03:52:09.404Z,15.77
2022-08-01T03:55:33.393Z,15.93
2022-08-01T03:58:58.419Z,16.09
2022-08-01T04:02:23.340Z,15.68
2022-08-01T04:05:47.363Z,15.54
2022-08-01T04:09:13.334Z,15.55
2022-08-01T04:12:38.559Z,15.63
2022-08-01T04:16:02.349Z,15.40
2022-08-01T04:19:27.547Z,15.10
2022-08-01T04:22:45.288Z,15.03
2022-08-01T04:26:04.422Z,14.84
2022-08-01T04:29:28.468Z,14.84
2022-08-01T04:32:54.432Z,14.84
2022-08-01T04:36:18.415Z,14.69
2022-08-01T04:39:50.740Z,14.32
2022-08-01T04:43:15.444Z,14.25
2022-08-01T04:46:38.393Z,14.07
2022-08-01T04:50:02.416Z,13.89
2022-08-01T04:53:32.408Z,13.76
2022-08-01T04:56:56.390Z,13.89
2022-08-01T05:00:20.424Z,13.56
2022-08-01T05:03:44.421Z,13.62
2022-08-01T05:07:08.448Z,13.46
2022-08-01T05:10:35.508Z,13.42
2022-08-01T05:14:00.389Z,13.13
2022-08-01T05:17:25.456Z,13.08
2022-08-01T05:20:49.380Z,12.89
2022-08-01T05:24:13.385Z,12.76
2022-08-01T05:27:38.367Z,12.66
2022-08-01T05:31:03.404Z,12.48
2022-08-01T05:34:28.408Z,12.29
2022-08-01T05:37:52.398Z,12.27
2022-08-01T05:41:17.441Z,12.28
2022-08-01T05:44:42.416Z,12.32
2022-08-01T05:48:06.463Z,12.40
2022-08-01T05:51:31.394Z,12.04
2022-08-01T05:54:55.441Z,11.82
2022-08-01T05:58:20.474Z,11.60
2022-08-01T06:01:45.488Z,11.91
2022-08-01T06:05:13.046Z,11.79
2022-08-01T06:08:37.447Z,11.47
2022-08-01T06:12:01.392Z,11.61
2022-08-01T06:15:26.451Z,11.65
2022-08-01T06:18:51.148Z,11.76
2022-08-01T06:22:17.392Z,11.62
2022-08-01T06:25:42.445Z,11.47
2022-08-01T06:29:06.441Z,11.37
2022-08-01T06:32:35.417Z,11.30
2022-08-01T06:35:59.483Z,11.16
2022-08-01T06:39:23.474Z,11.18
2022-08-01T06:42:47.454Z,11.10
2022-08-01T06:46:11.469Z,10.86
2022-08-01T06:49:35.576Z,10.68
2022-08-01T06:52:59.456Z,10.57
2022-08-01T06:56:23.511Z,10.53
2022-08-01T06:59:54.431Z,10.54
2022-08-01T07:03:19.487Z,10.45
2022-08-01T07:06:43.433Z,10.53
2022-08-01T07:10:07.441Z,10.51
2022-08-01T07:13:44.027Z,9.73
2022-08-01T07:17:09.643Z,9.58
2022-08-01T07:20:41.264Z,9.75
2022-08-01T07:24:15.512Z,9.60
2022-08-01T07:27:34.127Z,9.66
2022-08-01T07:30:53.481Z,9.02
2022-08-01T07:34:17.431Z,9.10
2022-08-01T07:37:48.339Z,9.25
2022-08-01T07:41:13.507Z,9.20
2022-08-01T07:44:38.459Z,9.37
2022-08-01T07:48:02.496Z,9.21
2022-08-01T07:51:26.410Z,8.98
2022-08-01T07:54:52.275Z,8.92
2022-08-01T07:58:16.478Z,8.92
2022-08-01T08:01:40.575Z,8.66
2022-08-01T08:05:04.461Z,8.77
2022-08-01T08:08:29.449Z,8.61
2022-08-01T08:11:53.484Z,8.85
2022-08-01T08:15:17.480Z,9.20
2022-08-01T08:18:42.473Z,9.66
2022-08-01T08:22:07.644Z,9.92
2022-08-01T08:25:33.510Z,9.93
2022-08-01T08:28:51.063Z,9.68
2022-08-01T08:32:09.824Z,8.97
2022-08-01T08:35:40.439Z,8.71
2022-08-01T08:39:16.471Z,8.57
2022-08-01T08:42:44.507Z,8.45
2022-08-01T08:46:09.501Z,8.23
2022-08-01T08:49:36.608Z,8.09
2022-08-01T08:53:01.442Z,8.53
2022-08-01T08:56:28.213Z,8.95
2022-08-01T08:59:53.512Z,8.28
2022-08-01T09:03:17.498Z,8.09
2022-08-01T09:06:41.456Z,7.76
2022-08-01T09:10:05.482Z,7.89
2022-08-01T09:13:31.542Z,8.80
2022-08-01T09:17:00.490Z,9.09
2022-08-01T09:20:23.564Z,8.43
2022-08-01T09:24:11.501Z,8.42
2022-08-01T09:27:37.509Z,9.01
2022-08-01T09:31:03.086Z,9.12
2022-08-01T09:34:20.498Z,8.29
2022-08-01T09:37:48.532Z,7.84
2022-08-01T09:41:22.525Z,7.69
2022-08-01T09:44:59.512Z,7.52
2022-08-01T09:48:28.826Z,7.59
2022-08-01T09:51:59.185Z,7.47
2022-08-01T09:55:25.532Z,7.48
2022-08-01T09:59:14.512Z,7.55
2022-08-01T10:02:49.543Z,7.53
2022-08-01T10:06:13.537Z,7.48
2022-08-01T10:09:48.499Z,7.33
2022-08-01T10:13:13.585Z,7.24
2022-08-01T10:16:38.766Z,7.11
2022-08-01T10:20:04.509Z,7.13
2022-08-01T10:23:40.640Z,7.20
2022-08-01T10:27:13.858Z,7.14
2022-08-01T10:30:37.539Z,7.05
2022-08-01T10:34:01.515Z,6.89
2022-08-01T10:37:27.004Z,6.90
2022-08-01T10:40:52.499Z,6.84
2022-08-01T10:44:17.528Z,6.84
2022-08-01T10:47:54.505Z,7.03
2022-08-01T10:51:21.587Z,7.03
2022-08-01T10:54:52.150Z,6.83
2022-08-01T10:58:17.553Z,6.73
2022-08-01T11:01:45.757Z,6.86
2022-08-01T11:05:35.518Z,7.04
2022-08-01T11:09:07.503Z,7.09
2022-08-01T11:12:32.528Z,7.01
2022-08-01T11:16:05.800Z,6.75
2022-08-01T11:19:40.502Z,6.89
2022-08-01T11:23:16.542Z,6.84
2022-08-01T11:26:41.536Z,6.60
2022-08-01T11:30:26.595Z,6.68
2022-08-01T11:33:59.248Z,6.57
2022-08-01T11:37:55.518Z,6.47
2022-08-01T11:41:41.528Z,6.26
2022-08-01T11:45:06.531Z,6.20
2022-08-01T11:48:39.508Z,6.38
2022-08-01T11:52:04.199Z,6.38
2022-08-01T11:55:31.476Z,6.63
2022-08-01T11:58:58.546Z,6.40
2022-08-01T12:02:47.811Z,6.47
2022-08-01T12:06:12.544Z,6.66
2022-08-01T12:09:37.555Z,6.51
2022-08-01T12:13:08.538Z,6.55
2022-08-01T12:16:33.026Z,6.49
2022-08-01T12:19:57.554Z,6.49
2022-08-01T12:23:27.570Z,6.47
2022-08-01T12:26:57.499Z,6.40
2022-08-01T12:30:23.572Z,6.30
2022-08-01T12:33:47.488Z,6.24
2022-08-01T12:37:15.542Z,6.23
2022-08-01T12:40:45.330Z,6.37
2022-08-01T12:44:09.570Z,6.28
2022-08-01T12:47:34.531Z,6.28
2022-08-01T12:51:06.560Z,6.22
2022-08-01T12:54:31.572Z,6.22
2022-08-01T12:58:01.580Z,5.91
2022-08-01T13:01:26.616Z,5.93
2022-08-01T13:05:05.681Z,5.94
2022-08-01T13:08:40.554Z,5.85
2022-08-01T13:12:04.903Z,5.60
2022-08-01T13:15:41.540Z,5.64
2022-08-01T13:19:09.562Z,5.74
2022-08-01T13:22:33.554Z,5.69
2022-08-01T13:26:08.597Z,5.79
2022-08-01T13:29:36.511Z,5.92
2022-08-01T13:33:00.564Z,5.81
2022-08-01T13:36:28.341Z,5.88
2022-08-01T13:39:56.568Z,5.57
2022-08-01T13:43:21.522Z,5.75
2022-08-01T13:46:49.790Z,5.87
2022-08-01T13:50:16.583Z,5.97
2022-08-01T13:53:40.574Z,6.14
2022-08-01T13:57:05.591Z,5.95
2022-08-01T14:00:29.571Z,6.08
2022-08-01T14:03:53.604Z,6.19
2022-08-01T14:07:18.576Z,6.29
2022-08-01T14:10:42.615Z,6.01
2022-08-01T14:14:08.535Z,6.12
2022-08-01T14:17:32.549Z,6.14
2022-08-01T14:21:05.712Z,6.24
2022-08-01T14:24:30.588Z,6.18
2022-08-01T14:27:56.576Z,6.44
2022-08-01T14:31:20.595Z,6.42
2022-08-01T14:34:44.543Z,6.51
2022-08-01T14:38:08.572Z,6.38
2022-08-01T14:41:32.638Z,6.34
2022-08-01T14:44:57.587Z,6.43
2022-08-01T14:48:21.630Z,6.49
2022-08-01T14:51:46.683Z,6.48
2022-08-01T14:55:10.586Z,6.47
2022-08-01T14:58:34.643Z,6.43
2022-08-01T15:01:58.610Z,6.15
2022-08-01T15:05:23.602Z,6.16
2022-08-01T15:08:47.576Z,6.28
2022-08-01T15:12:12.571Z,6.15
2022-08-01T15:15:36.605Z,6.01
2022-08-01T15:19:00.553Z,5.80
2022-08-01T15:22:25.633Z,5.88
2022-08-01T15:25:49.591Z,5.87
2022-08-01T15:29:13.575Z,5.62
2022-08-01T15:32:38.609Z,5.65
2022-08-01T15:36:02.569Z,5.68
2022-08-01T15:39:28.590Z,5.59
2022-08-01T15:42:52.637Z,5.43
2022-08-01T15:46:17.558Z,5.40
2022-08-01T15:49:41.602Z,5.36
2022-08-01T15:53:05.620Z,5.26
2022-08-01T15:56:29.606Z,5.14
2022-08-01T15:59:53.555Z,5.09
2022-08-01T16:03:18.604Z,5.14
2022-08-01T16:06:42.557Z,5.06
2022-08-01T16:10:07.615Z,5.16
2022-08-01T16:13:32.565Z,4.77
2022-08-01T16:16:57.659Z,4.91
2022-08-01T16:20:22.571Z,4.67
2022-08-01T16:23:46.663Z,4.69
2022-08-01T16:27:10.620Z,4.69
2022-08-01T16:30:34.642Z,4.63
2022-08-01T16:34:05.006Z,4.54
2022-08-01T16:37:29.610Z,4.53
2022-08-01T16:40:55.639Z,4.37
2022-08-01T16:44:15.208Z,4.53
2022-08-01T16:47:35.619Z,4.36
2022-08-01T16:51:00.624Z,4.31
2022-08-01T16:54:26.451Z,4.24
2022-08-01T16:57:50.575Z,4.25
2022-08-01T17:02:03.350Z,4.09
2022-08-01T17:04:59.713Z,4.04
2022-08-01T17:08:32.620Z,4.01
2022-08-01T17:11:56.639Z,3.98
2022-08-01T17:15:22.603Z,3.87
2022-08-01T17:18:47.569Z,3.91
2022-08-01T17:22:12.657Z,3.82
2022-08-01T17:25:36.625Z,3.86
2022-08-01T17:29:01.674Z,3.91
2022-08-01T17:32:25.619Z,3.94
2022-08-01T17:35:49.652Z,3.81
2022-08-01T17:39:14.613Z,3.74
2022-08-01T17:42:39.631Z,3.84
2022-08-01T17:46:05.618Z,3.90
2022-08-01T17:49:53.225Z,3.81
2022-08-01T17:53:14.628Z,3.72
2022-08-01T17:56:41.910Z,3.71
2022-08-01T18:00:08.683Z,3.74
2022-08-01T18:03:32.625Z,3.77
2022-08-01T18:07:06.628Z,3.87
2022-08-01T18:10:34.616Z,3.72
2022-08-01T18:14:03.631Z,3.70
2022-08-01T18:17:28.616Z,3.56
2022-08-01T18:20:53.675Z,3.55
2022-08-01T18:24:22.581Z,3.45
2022-08-01T18:28:22.563Z,3.48
2022-08-01T18:31:32.586Z,3.48
2022-08-01T18:34:56.776Z,3.41
2022-08-01T18:38:23.993Z,3.32
2022-08-01T18:41:50.632Z,3.49
2022-08-01T18:45:14.611Z,3.48
2022-08-01T18:48:39.702Z,3.48
2022-08-01T18:52:06.649Z,3.29
2022-08-01T18:55:30.680Z,3.27
2022-08-01T18:58:56.673Z,3.37
2022-08-01T19:02:20.658Z,3.18
2022-08-01T19:05:44.624Z,3.32
2022-08-01T19:09:11.680Z,3.40
2022-08-01T19:12:35.615Z,3.50
2022-08-01T19:15:59.693Z,3.36
2022-08-01T19:19:27.554Z,3.46
2022-08-01T19:22:53.656Z,3.56
2022-08-01T19:26:20.658Z,3.53
2022-08-01T19:29:50.654Z,3.53
2022-08-01T19:33:14.619Z,3.53
2022-08-01T19:36:39.641Z,3.52
2022-08-01T19:40:05.625Z,3.71
2022-08-01T19:43:29.633Z,3.85
2022-08-01T19:46:58.630Z,3.87
2022-08-01T19:50:22.652Z,3.89
2022-08-01T19:53:56.703Z,4.07
2022-08-01T19:57:22.657Z,4.30
2022-08-01T20:00:47.646Z,4.38
2022-08-01T20:04:14.642Z,4.43
2022-08-01T20:07:38.651Z,4.47
2022-08-01T20:11:10.304Z,4.60
2022-08-01T20:14:40.705Z,4.76
2022-08-01T20:18:04.620Z,4.93
2022-08-01T20:21:29.689Z,4.84
2022-08-01T20:24:57.642Z,4.96
2022-08-01T20:28:25.697Z,4.87
2022-08-01T20:31:50.632Z,5.02
2022-08-01T20:35:16.649Z,5.22
2022-08-01T20:39:00.697Z,5.48
2022-08-01T20:42:24.716Z,5.62
2022-08-01T20:45:49.710Z,6.23
2022-08-01T20:49:13.739Z,9.11
2022-08-01T20:52:37.736Z,10.11
2022-08-01T20:56:07.696Z,10.91
2022-08-01T20:59:55.977Z,11.13
2022-08-01T21:03:26.685Z,11.26
2022-08-01T21:06:57.684Z,10.55
2022-08-01T21:10:23.687Z,11.24
2022-08-01T21:13:58.807Z,10.47
2022-08-01T21:17:27.706Z,9.98
2022-08-01T21:21:21.717Z,9.41
2022-08-01T21:25:02.690Z,10.67
2022-08-01T21:28:29.682Z,11.56
2022-08-01T21:31:55.695Z,11.56
2022-08-01T21:35:20.646Z,11.61
2022-08-01T21:38:44.681Z,11.21
2022-08-01T21:42:09.519Z,11.29
2022-08-01T21:45:37.654Z,11.90
2022-08-01T21:49:21.788Z,11.99
2022-08-01T21:52:59.653Z,11.57
2022-08-01T21:56:40.701Z,11.60
2022-08-01T22:00:31.717Z,11.37
2022-08-01T22:04:01.687Z,11.24
2022-08-01T22:07:28.664Z,11.65
2022-08-01T22:10:53.706Z,12.10
2022-08-01T22:14:22.657Z,12.26
2022-08-01T22:17:46.685Z,12.09
2022-08-01T22:21:10.816Z,12.32
2022-08-01T22:24:34.740Z,12.15
2022-08-01T22:28:07.794Z,12.44
2022-08-01T22:31:37.975Z,13.13
2022-08-01T22:35:02.726Z,13.20
2022-08-01T22:38:27.688Z,13.17
2022-08-01T22:42:02.025Z,13.75
2022-08-01T22:45:33.654Z,13.62
2022-08-01T22:48:58.801Z,13.15
2022-08-01T22:52:35.715Z,13.36
2022-08-01T22:55:59.740Z,13.33
2022-08-01T22:59:23.763Z,13.51
2022-08-01T23:02:51.687Z,13.12
2022-08-01T23:06:32.782Z,13.46
2022-08-01T23:09:56.719Z,13.05
2022-08-01T23:13:20.724Z,13.13
2022-08-01T23:16:45.721Z,12.84
2022-08-01T23:20:14.833Z,13.36
2022-08-01T23:23:38.720Z,13.51
2022-08-01T23:27:04.775Z,13.63
2022-08-01T23:30:28.734Z,13.83
2022-08-01T23:33:52.732Z,13.65
2022-08-01T23:37:17.690Z,13.82
2022-08-01T23:40:40.765Z,13.92
2022-08-01T23:44:05.699Z,13.98
2022-08-01T23:47:33.689Z,14.00
2022-08-01T23:50:58.776Z,14.14
2022-08-01T23:54:22.755Z,14.73
2022-08-01T23:57:47.793Z,14.74
